Time;durP1;ratioP1;P1;durP2;ratioP2;P2;SDS_P1;SDS_P2;PMS_P1;PMS_P2;Temp;Humidity;BMP_temperature;BMP_pressure;BME280_temperature;BME280_humidity;BME280_pressure;Samples;Min_cycle;Max_cycle;Signal;HPM_P1;HPM_P2
2023/11/14 00:00:20;;;;;;;4.03;1.65;;;;;;;20.62;42.65;99492.72;5062482;28;20141;-73
2023/11/14 00:02:46;;;;;;;5.30;2.10;;;;;;;20.71;42.67;99512.59;5061335;28;20056;-74
2023/11/14 00:05:12;;;;;;;5.18;1.98;;;;;;;20.66;42.62;99505.34;5059590;28;20044;-74
2023/11/14 00:07:38;;;;;;;4.65;1.70;;;;;;;20.70;42.59;99506.50;5059763;28;20519;-74
2023/11/14 00:10:04;;;;;;;3.65;1.50;;;;;;;20.64;42.51;99498.63;5045779;28;20040;-74
2023/11/14 00:12:30;;;;;;;4.05;1.73;;;;;;;20.41;42.55;99459.56;5062637;28;20039;-73
2023/11/14 00:14:56;;;;;;;3.05;1.35;;;;;;;20.67;42.73;99485.78;5061889;28;20143;-73
2023/11/14 00:17:21;;;;;;;3.38;1.50;;;;;;;20.63;42.68;99489.06;5064434;28;20032;-74
2023/11/14 00:19:47;;;;;;;3.88;1.58;;;;;;;20.66;42.73;99497.41;5067814;28;20044;-73
2023/11/14 00:22:14;;;;;;;3.92;1.40;;;;;;;20.58;42.81;99479.13;5067431;28;20079;-74
2023/11/14 00:24:39;;;;;;;6.57;2.03;;;;;;;20.64;42.69;99502.06;5064538;28;20055;-74
2023/11/14 00:27:05;;;;;;;4.40;1.75;;;;;;;20.63;42.71;99502.28;5067975;28;20040;-73
2023/11/14 00:29:31;;;;;;;3.63;1.60;;;;;;;20.56;42.79;99501.53;5063273;28;20040;-74
2023/11/14 00:31:57;;;;;;;3.55;1.63;;;;;;;20.58;42.66;99500.28;5062361;28;20630;-73
2023/11/14 00:34:22;;;;;;;6.00;1.70;;;;;;;20.50;42.63;99490.81;5070671;28;20044;-74
2023/11/14 00:36:50;;;;;;;2.78;1.45;;;;;;;20.58;42.66;99504.78;5064268;28;20035;-74
2023/11/14 00:39:16;;;;;;;5.22;1.73;;;;;;;20.60;42.69;99500.88;5047984;28;20033;-74
2023/11/14 00:41:47;;;;;;;3.80;1.52;;;;;;;20.60;42.81;99518.59;5064622;28;20040;-73
2023/11/14 00:44:13;;;;;;;3.38;1.55;;;;;;;20.55;42.84;99521.09;5048873;28;20725;-74
2023/11/14 00:46:39;;;;;;;5.35;1.75;;;;;;;20.48;42.74;99508.72;5044074;28;20059;-74
2023/11/14 00:49:04;;;;;;;4.03;1.88;;;;;;;20.58;42.82;99521.44;5061801;28;20041;-74
2023/11/14 00:51:30;;;;;;;4.65;1.80;;;;;;;20.58;42.73;99513.53;5062581;28;20078;-73
2023/11/14 00:53:56;;;;;;;8.98;2.15;;;;;;;20.56;42.82;99534.09;5063854;28;20036;-74
2023/11/14 00:56:22;;;;;;;3.60;1.63;;;;;;;20.49;42.75;99509.53;5061165;28;20051;-73
2023/11/14 00:58:48;;;;;;;4.30;1.70;;;;;;;20.45;42.82;99505.69;5065839;28;20047;-74
2023/11/14 01:01:13;;;;;;;4.10;1.83;;;;;;;20.54;42.65;99516.81;5064058;28;20027;-74
2023/11/14 01:03:39;;;;;;;6.25;1.73;;;;;;;20.43;42.80;99502.44;5069772;28;20071;-74
2023/11/14 01:06:05;;;;;;;2.60;1.50;;;;;;;20.51;42.83;99521.53;5065850;28;20048;-73
2023/11/14 01:08:31;;;;;;;4.30;1.88;;;;;;;20.46;42.85;99513.41;5064332;28;20036;-73
2023/11/14 01:10:57;;;;;;;7.03;1.83;;;;;;;20.44;42.84;99512.00;5064466;28;20032;-74
2023/11/14 01:13:23;;;;;;;4.15;1.85;;;;;;;20.48;42.89;99524.59;5062650;28;20620;-74
2023/11/14 01:15:49;;;;;;;3.05;1.55;;;;;;;20.40;43.01;99519.53;5064252;28;20047;-74
2023/11/14 01:18:15;;;;;;;3.72;1.67;;;;;;;20.42;42.83;99520.16;5078465;28;20036;-73
2023/11/14 01:20:41;;;;;;;5.65;2.15;;;;;;;20.45;42.95;99503.84;5051687;28;20048;-73
2023/11/14 01:23:07;;;;;;;5.32;1.70;;;;;;;20.37;42.96;99495.34;5061112;28;20102;-74
2023/11/14 01:25:32;;;;;;;7.28;2.00;;;;;;;20.46;43.01;99521.34;5062348;28;20048;-74
2023/11/14 01:27:58;;;;;;;5.68;1.92;;;;;;;20.37;42.81;99516.50;5059254;28;20599;-74
2023/11/14 01:30:23;;;;;;;4.82;1.80;;;;;;;20.44;43.01;99512.81;5062104;28;20033;-74
2023/11/14 01:32:49;;;;;;;4.03;1.75;;;;;;;20.33;42.94;99502.09;5063482;28;20036;-73
2023/11/14 01:35:14;;;;;;;4.90;1.90;;;;;;;20.43;42.91;99521.78;5060145;28;20217;-74
2023/11/14 01:37:41;;;;;;;3.28;1.90;;;;;;;20.42;42.95;99532.56;5064485;28;20086;-74
2023/11/14 01:40:07;;;;;;;3.63;1.77;;;;;;;20.38;42.95;99531.34;5064022;28;20835;-74
2023/11/14 01:42:32;;;;;;;3.78;1.58;;;;;;;20.36;43.03;99534.22;5064096;28;20508;-73
2023/11/14 01:44:58;;;;;;;6.57;2.13;;;;;;;20.43;42.97;99545.56;5063053;28;20025;-74
2023/11/14 01:47:26;;;;;;;3.15;1.77;;;;;;;20.41;43.00;99541.53;5063997;28;20040;-74
2023/11/14 01:49:53;;;;;;;4.05;1.73;;;;;;;20.42;43.10;99557.16;5058500;28;20040;-74
2023/11/14 01:52:19;;;;;;;6.75;2.20;;;;;;;20.38;42.95;99549.84;5058128;28;20056;-73
2023/11/14 01:54:45;;;;;;;4.35;1.70;;;;;;;20.31;43.11;99544.63;5062716;28;20123;-74
2023/11/14 01:57:12;;;;;;;3.92;1.90;;;;;;;20.39;43.16;99554.91;5061262;28;20531;-73
2023/11/14 01:59:39;;;;;;;6.85;2.30;;;;;;;20.29;42.98;99536.09;5084609;28;20032;-73
2023/11/14 02:02:05;;;;;;;4.53;1.65;;;;;;;20.35;43.05;99545.81;5063240;28;20379;-73
2023/11/14 02:04:33;;;;;;;6.38;2.00;;;;;;;20.38;43.03;99550.66;5058637;28;20138;-74
2023/11/14 02:07:00;;;;;;;6.07;2.10;;;;;;;20.29;42.92;99544.03;5058335;28;20127;-74
2023/11/14 02:09:27;;;;;;;6.88;2.42;;;;;;;20.37;42.99;99549.03;5062313;28;20036;-74
2023/11/14 02:11:55;;;;;;;6.72;2.17;;;;;;;20.41;43.05;99544.97;5063903;28;20043;-74
2023/11/14 02:14:21;;;;;;;4.80;1.83;;;;;;;20.40;42.98;99558.38;5056214;28;20044;-74
2023/11/14 02:16:48;;;;;;;4.30;2.10;;;;;;;20.41;42.99;99573.25;5064227;28;20038;-74
2023/11/14 02:19:15;;;;;;;3.90;1.85;;;;;;;20.33;42.98;99541.75;5060688;28;20701;-74
2023/11/14 02:21:41;;;;;;;3.45;2.22;;;;;;;20.33;43.03;99558.44;5053957;28;20048;-74
2023/11/14 02:24:09;;;;;;;4.15;2.00;;;;;;;20.39;42.89;99570.78;5057769;28;20055;-74
2023/11/14 02:26:36;;;;;;;6.45;1.70;;;;;;;20.36;43.05;99567.78;5066641;28;20056;-74
2023/11/14 02:29:02;;;;;;;3.58;1.58;;;;;;;20.41;43.09;99575.88;5060080;28;20036;-74
2023/11/14 02:31:29;;;;;;;5.07;1.90;;;;;;;20.38;42.95;99581.56;5058043;28;20063;-74
2023/11/14 02:33:55;;;;;;;5.38;1.80;;;;;;;20.36;42.89;99558.00;5060114;28;20051;-74
2023/11/14 02:36:21;;;;;;;6.30;1.80;;;;;;;20.43;43.03;99561.44;5061291;28;20040;-74
2023/11/14 02:38:46;;;;;;;5.03;1.90;;;;;;;20.45;43.00;99567.31;5062438;28;20061;-74
2023/11/14 02:41:15;;;;;;;5.82;1.92;;;;;;;20.44;42.95;99560.41;5062755;28;20731;-74
2023/11/14 02:43:41;;;;;;;5.45;1.77;;;;;;;20.45;42.91;99566.50;5065509;28;20052;-74
2023/11/14 02:46:07;;;;;;;4.22;1.90;;;;;;;20.42;43.09;99588.09;5061983;28;20102;-74
2023/11/14 02:48:33;;;;;;;2.88;1.80;;;;;;;20.36;42.86;99573.88;5066945;28;20047;-74
2023/11/14 02:50:59;;;;;;;5.75;1.70;;;;;;;20.40;43.05;99575.06;5060658;28;20038;-74
2023/11/14 02:53:25;;;;;;;3.95;2.00;;;;;;;20.43;42.82;99577.28;5056669;28;21272;-74
2023/11/14 02:55:52;;;;;;;4.63;1.85;;;;;;;20.44;43.13;99589.50;5067176;28;20090;-74
2023/11/14 02:58:18;;;;;;;5.43;1.90;;;;;;;20.44;43.00;99601.91;5060307;28;20040;-74
2023/11/14 03:00:46;;;;;;;3.97;1.50;;;;;;;20.43;42.97;99598.44;5056578;28;20487;-74
2023/11/14 03:03:15;;;;;;;4.10;1.95;;;;;;;20.44;43.00;99593.97;5066500;28;20063;-74
2023/11/14 03:05:42;;;;;;;5.03;1.77;;;;;;;20.42;43.05;99596.81;5082255;28;20097;-74
2023/11/14 03:08:07;;;;;;;4.53;1.83;;;;;;;20.41;42.88;99608.44;5058694;28;20045;-74
2023/11/14 03:10:33;;;;;;;2.53;1.50;;;;;;;20.42;42.89;99603.94;5064663;28;20049;-74
2023/11/14 03:13:00;;;;;;;3.95;1.70;;;;;;;20.42;43.03;99601.31;5053641;28;20029;-74
2023/11/14 03:15:26;;;;;;;4.68;1.70;;;;;;;20.37;43.00;99601.91;5063894;28;20064;-74
2023/11/14 03:17:58;;;;;;;4.45;1.80;;;;;;;20.32;43.04;99587.72;5058507;28;20383;-74
2023/11/14 03:20:25;;;;;;;4.10;2.50;;;;;;;20.39;42.94;99609.63;5056308;28;20020;-74
2023/11/14 03:22:50;;;;;;;3.88;1.70;;;;;;;20.42;43.02;99625.91;5056816;28;20185;-74
2023/11/14 03:25:16;;;;;;;4.43;1.50;;;;;;;20.42;42.98;99640.97;5065158;28;20115;-74
2023/11/14 03:27:42;;;;;;;5.43;1.95;;;;;;;20.40;43.08;99630.56;5062363;28;20166;-74
2023/11/14 03:30:09;;;;;;;7.00;1.90;;;;;;;20.42;43.05;99633.03;5059548;28;20033;-74
2023/11/14 03:32:35;;;;;;;4.80;1.80;;;;;;;20.41;42.94;99642.81;5059498;28;20768;-74
2023/11/14 03:35:01;;;;;;;3.65;1.52;;;;;;;20.37;43.02;99635.47;5064276;28;20548;-74
2023/11/14 03:37:26;;;;;;;3.13;1.50;;;;;;;20.41;43.01;99655.22;5052814;28;20622;-74
2023/11/14 03:39:52;;;;;;;4.57;1.98;;;;;;;20.34;42.80;99655.22;5060460;28;20032;-74
2023/11/14 03:42:18;;;;;;;3.75;1.90;;;;;;;20.30;43.27;99648.75;5059638;28;20510;-74
2023/11/14 03:44:44;;;;;;;5.18;2.00;;;;;;;20.29;43.08;99625.97;5067385;28;20775;-74
2023/11/14 03:47:10;;;;;;;5.00;1.52;;;;;;;20.23;43.26;99646.13;5072579;28;20031;-74
2023/11/14 03:49:35;;;;;;;4.00;1.80;;;;;;;20.40;43.05;99662.31;5066721;28;20506;-74
2023/11/14 03:52:01;;;;;;;3.95;1.73;;;;;;;20.25;43.40;99634.53;5074055;28;20046;-74
2023/11/14 03:54:26;;;;;;;4.60;2.00;;;;;;;20.33;43.13;99655.44;5072611;28;20028;-74
2023/11/14 03:56:52;;;;;;;3.70;1.67;;;;;;;20.36;43.18;99679.63;5072071;28;20039;-74
2023/11/14 03:59:18;;;;;;;2.55;1.30;;;;;;;20.38;43.16;99676.75;5045439;28;20613;-74
2023/11/14 04:01:43;;;;;;;7.40;2.05;;;;;;;20.38;42.99;99667.00;5068260;28;20036;-74
2023/11/14 04:04:09;;;;;;;4.65;1.67;;;;;;;20.32;43.13;99677.63;5066744;28;20048;-74
2023/11/14 04:06:34;;;;;;;4.28;1.88;;;;;;;20.35;43.02;99666.63;5031025;28;20478;-74
2023/11/14 04:09:00;;;;;;;4.65;1.67;;;;;;;20.37;43.32;99672.50;5064996;28;20044;-74
2023/11/14 04:11:25;;;;;;;3.33;1.73;;;;;;;20.39;43.07;99673.09;5064725;28;20047;-74
2023/11/14 04:13:51;;;;;;;5.45;2.38;;;;;;;20.39;43.16;99673.91;5048174;28;20036;-74
2023/11/14 04:16:17;;;;;;;5.57;1.90;;;;;;;20.38;43.32;99674.94;5064432;28;20036;-74
2023/11/14 04:18:43;;;;;;;4.55;1.88;;;;;;;20.41;43.13;99684.31;5059445;28;20825;-74
2023/11/14 04:21:10;;;;;;;4.13;1.40;;;;;;;20.34;43.05;99673.72;5061482;28;20035;-74
2023/11/14 04:23:35;;;;;;;5.57;2.03;;;;;;;20.35;43.23;99687.75;5057982;28;20431;-74
2023/11/14 04:26:02;;;;;;;4.13;1.77;;;;;;;20.31;43.09;99660.13;5059245;28;20079;-74
2023/11/14 04:28:27;;;;;;;4.32;1.70;;;;;;;20.32;43.37;99662.56;5065722;28;20055;-74
2023/11/14 04:30:54;;;;;;;4.63;1.80;;;;;;;20.39;43.17;99683.66;5065898;28;20049;-74
2023/11/14 04:33:19;;;;;;;3.58;2.05;;;;;;;20.37;43.13;99697.09;5063670;28;20044;-74
2023/11/14 04:35:46;;;;;;;3.40;1.50;;;;;;;20.34;43.29;99691.44;5060672;28;20043;-74
2023/11/14 04:38:13;;;;;;;4.25;1.70;;;;;;;20.40;43.37;99701.16;5064894;28;20037;-74
2023/11/14 04:40:39;;;;;;;3.50;1.73;;;;;;;20.30;43.20;99683.13;5061568;28;20036;-74
2023/11/14 04:43:04;;;;;;;4.82;1.50;;;;;;;20.40;43.24;99688.75;5065578;28;20067;-74
2023/11/14 04:45:30;;;;;;;5.60;1.80;;;;;;;20.39;43.16;99694.25;5063762;28;20569;-74
2023/11/14 04:47:57;;;;;;;4.38;1.60;;;;;;;20.37;43.22;99691.00;5068037;28;20486;-74
2023/11/14 04:50:23;;;;;;;5.38;1.98;;;;;;;20.27;43.16;99675.56;5061613;28;20040;-74
2023/11/14 04:52:49;;;;;;;3.30;1.50;;;;;;;20.32;43.01;99689.00;5071794;28;20054;-74
2023/11/14 04:55:14;;;;;;;4.13;1.55;;;;;;;20.30;43.12;99684.94;5059704;28;20075;-74
2023/11/14 04:57:40;;;;;;;5.13;1.75;;;;;;;19.97;43.30;99643.59;5061420;28;20131;-74
2023/11/14 05:00:08;;;;;;;4.53;2.05;;;;;;;20.34;43.26;99702.81;5059462;28;20055;-74
2023/11/14 05:02:34;;;;;;;4.63;1.80;;;;;;;20.37;43.17;99696.28;5060335;28;20052;-74
2023/11/14 05:05:00;;;;;;;4.88;1.67;;;;;;;20.31;43.22;99711.19;5067252;28;20140;-74
2023/11/14 05:07:25;;;;;;;3.35;1.33;;;;;;;20.35;43.21;99711.56;5061090;28;20131;-74
2023/11/14 05:09:52;;;;;;;5.07;1.67;;;;;;;20.34;43.14;99715.22;5063367;28;20050;-74
2023/11/14 05:12:18;;;;;;;3.58;1.80;;;;;;;20.22;43.42;99709.78;5066549;28;20050;-74
2023/11/14 05:14:45;;;;;;;4.50;1.90;;;;;;;20.29;43.23;99705.28;5062387;28;20048;-74
2023/11/14 05:17:10;;;;;;;3.72;1.70;;;;;;;20.33;43.34;99717.06;5067757;28;20044;-74
2023/11/14 05:19:36;;;;;;;2.45;1.52;;;;;;;20.33;43.21;99716.25;5057132;28;20040;-74
2023/11/14 05:22:01;;;;;;;4.57;1.83;;;;;;;20.32;43.25;99711.97;5063251;28;20036;-74
2023/11/14 05:24:28;;;;;;;4.60;2.00;;;;;;;20.27;43.28;99693.28;5064517;28;20033;-74
2023/11/14 05:26:53;;;;;;;4.47;2.00;;;;;;;20.28;43.38;99724.78;5066839;28;20043;-74
2023/11/14 05:29:19;;;;;;;4.18;1.52;;;;;;;20.25;43.40;99721.75;5065018;28;20040;-74
2023/11/14 05:31:44;;;;;;;4.30;1.60;;;;;;;20.30;43.22;99728.06;5066375;28;20425;-74
2023/11/14 05:34:10;;;;;;;3.35;1.88;;;;;;;20.27;43.20;99719.72;5066893;28;20039;-74
2023/11/14 05:36:36;;;;;;;4.20;1.63;;;;;;;20.23;43.33;99721.97;5060826;28;20083;-74
2023/11/14 05:39:03;;;;;;;4.15;2.17;;;;;;;20.19;43.27;99708.34;5068156;28;20036;-74
2023/11/14 05:41:29;;;;;;;4.18;1.65;;;;;;;20.29;43.14;99718.50;5058019;28;20900;-74
2023/11/14 05:43:54;;;;;;;5.05;1.90;;;;;;;20.28;43.30;99716.03;5069844;28;20048;-73
2023/11/14 05:46:20;;;;;;;3.15;1.77;;;;;;;20.15;43.26;99695.78;5062479;28;20036;-74
2023/11/14 05:48:46;;;;;;;4.60;1.95;;;;;;;20.19;43.53;99720.75;5060217;28;20098;-74
2023/11/14 05:51:11;;;;;;;5.82;1.80;;;;;;;20.06;43.52;99687.25;5059747;28;20039;-74
2023/11/14 05:53:37;;;;;;;3.72;1.85;;;;;;;20.19;43.38;99711.00;5060288;28;20032;-74
2023/11/14 05:56:03;;;;;;;3.42;2.05;;;;;;;20.30;43.36;99712.19;5068315;28;20236;-74
2023/11/14 05:58:28;;;;;;;4.32;1.92;;;;;;;20.37;43.22;99741.25;5067188;28;20032;-74
2023/11/14 06:00:53;;;;;;;3.88;1.60;;;;;;;20.37;43.07;99734.13;5065379;28;20032;-74
2023/11/14 06:03:21;;;;;;;3.78;1.63;;;;;;;20.37;43.25;99723.53;5059106;28;20051;-74
2023/11/14 06:05:47;;;;;;;5.88;1.80;;;;;;;20.26;43.21;99691.66;5064135;28;20070;-74
2023/11/14 06:08:12;;;;;;;3.75;1.60;;;;;;;20.35;43.24;99704.44;5056615;28;20040;-74
2023/11/14 06:10:38;;;;;;;3.33;1.70;;;;;;;20.40;43.20;99717.03;5061826;28;20040;-74
2023/11/14 06:13:03;;;;;;;4.78;2.10;;;;;;;20.39;43.21;99724.16;5061670;28;20402;-74
2023/11/14 06:15:29;;;;;;;4.65;1.85;;;;;;;20.27;43.16;99706.50;5067912;28;20986;-74
2023/11/14 06:17:54;;;;;;;2.85;1.40;;;;;;;20.40;43.22;99728.41;5071272;28;20075;-74
2023/11/14 06:20:22;;;;;;;4.38;1.40;;;;;;;20.40;43.23;99735.53;5062585;28;20131;-74
2023/11/14 06:22:49;;;;;;;3.95;1.65;;;;;;;20.39;43.18;99742.66;5056633;28;20055;-74
2023/11/14 06:25:15;;;;;;;5.43;1.90;;;;;;;20.39;43.32;99750.59;5060838;28;20518;-74
2023/11/14 06:27:41;;;;;;;2.53;1.55;;;;;;;20.39;43.26;99763.00;5062033;28;20055;-74
2023/11/14 06:30:07;;;;;;;4.90;1.63;;;;;;;20.38;43.21;99761.38;5059901;28;20040;-74
2023/11/14 06:32:33;;;;;;;3.35;1.35;;;;;;;20.35;43.18;99765.25;5059755;28;20472;-74
2023/11/14 06:34:59;;;;;;;4.47;1.77;;;;;;;20.39;43.30;99768.28;5065324;28;20604;-74
2023/11/14 06:37:25;;;;;;;2.70;1.42;;;;;;;20.34;43.19;99763.63;5083287;28;20064;-74
2023/11/14 06:39:51;;;;;;;4.15;1.73;;;;;;;20.38;43.33;99777.22;5061732;28;20033;-74
2023/11/14 06:42:16;;;;;;;3.30;1.60;;;;;;;20.37;43.33;99771.13;5059118;28;20539;-74
2023/11/14 06:44:43;;;;;;;5.45;2.03;;;;;;;20.34;43.33;99790.06;5065733;28;20044;-74
2023/11/14 06:47:09;;;;;;;3.13;1.92;;;;;;;20.32;43.28;99791.28;5065737;28;20040;-74
2023/11/14 06:49:35;;;;;;;3.92;1.90;;;;;;;20.39;43.18;99792.88;5066029;28;20498;-74
2023/11/14 06:52:01;;;;;;;3.05;1.50;;;;;;;20.32;43.41;99799.22;5062042;28;20051;-74
2023/11/14 06:54:26;;;;;;;5.35;2.20;;;;;;;20.37;43.41;99800.22;5065037;28;20032;-74
2023/11/14 06:56:51;;;;;;;4.95;2.20;;;;;;;20.10;43.33;99773.03;5062330;28;20571;-74
2023/11/14 06:59:17;;;;;;;4.53;1.70;;;;;;;20.38;43.48;99808.97;5046601;28;20036;-73
2023/11/14 07:01:48;;;;;;;3.13;1.63;;;;;;;20.27;43.39;99802.47;5064760;28;20044;-74
2023/11/14 07:04:13;;;;;;;3.72;1.73;;;;;;;20.28;43.53;99804.09;5054498;28;20071;-74
2023/11/14 07:06:39;;;;;;;4.97;1.77;;;;;;;20.28;43.51;99817.31;5061400;28;20052;-74
2023/11/14 07:09:05;;;;;;;3.17;1.50;;;;;;;20.36;43.42;99813.66;5053431;28;20036;-74
2023/11/14 07:11:30;;;;;;;4.60;1.83;;;;;;;20.25;43.45;99815.09;5066870;28;20090;-74
2023/11/14 07:13:55;;;;;;;3.78;1.55;;;;;;;20.35;43.37;99836.63;5062274;28;20036;-74
2023/11/14 07:16:21;;;;;;;4.90;2.03;;;;;;;20.40;43.27;99833.38;5066381;28;20036;-74
2023/11/14 07:18:47;;;;;;;4.57;1.77;;;;;;;20.55;43.23;99827.88;5062736;28;20589;-74
2023/11/14 07:21:13;;;;;;;4.20;1.80;;;;;;;21.17;42.10;99806.00;5066717;28;20040;-74
2023/11/14 07:23:39;;;;;;;3.70;1.55;;;;;;;22.06;40.59;99828.81;5064831;28;20502;-74
2023/11/14 07:26:05;;;;;;;5.60;1.67;;;;;;;22.23;40.20;99826.41;5065765;28;20040;-74
2023/11/14 07:28:30;;;;;;;3.08;1.70;;;;;;;22.00;40.77;99814.56;5050558;28;20041;-74
2023/11/14 07:30:56;;;;;;;4.25;1.88;;;;;;;21.99;40.79;99838.66;5066556;28;20071;-74
2023/11/14 07:33:21;;;;;;;5.80;1.70;;;;;;;21.78;41.26;99841.69;5060012;28;20037;-74
2023/11/14 07:35:47;;;;;;;3.85;1.52;;;;;;;21.81;41.42;99847.38;5069556;28;20043;-74
2023/11/14 07:38:13;;;;;;;4.53;1.63;;;;;;;21.68;41.79;99848.28;5068492;28;20371;-73
2023/11/14 07:40:38;;;;;;;3.67;1.90;;;;;;;21.51;42.09;99856.94;5062546;28;20063;-74
2023/11/14 07:43:06;;;;;;;4.78;1.77;;;;;;;21.33;42.02;99847.88;5069127;28;20585;-74
2023/11/14 07:45:32;;;;;;;3.33;1.52;;;;;;;21.34;42.52;99873.34;5070214;28;20036;-74
2023/11/14 07:47:58;;;;;;;3.47;1.52;;;;;;;21.22;42.46;99863.63;5075438;28;20060;-74
2023/11/14 07:50:24;;;;;;;2.65;1.25;;;;;;;21.18;42.63;99857.91;5059384;28;20064;-74
2023/11/14 07:52:50;;;;;;;4.00;1.70;;;;;;;21.18;42.68;99865.06;5063055;28;20091;-74
2023/11/14 07:55:16;;;;;;;4.35;1.45;;;;;;;21.16;42.90;99857.31;5066284;28;20124;-74
2023/11/14 07:57:43;;;;;;;3.83;1.58;;;;;;;21.15;42.81;99857.53;5067446;28;20067;-74
2023/11/14 08:00:11;;;;;;;2.67;1.50;;;;;;;21.05;42.79;99858.00;5061144;28;20530;-74
2023/11/14 08:02:39;;;;;;;4.80;1.70;;;;;;;21.08;42.99;99873.47;5066808;28;20762;-74
2023/11/14 08:05:05;;;;;;;5.32;1.90;;;;;;;20.93;42.91;99870.25;5061329;28;20052;-74
2023/11/14 08:07:31;;;;;;;5.45;1.52;;;;;;;21.01;43.00;99870.84;5057023;28;20036;-74
2023/11/14 08:09:56;;;;;;;4.45;1.60;;;;;;;21.03;43.05;99874.09;5078049;28;20055;-73
2023/11/14 08:12:22;;;;;;;4.55;1.77;;;;;;;20.98;43.48;99875.72;5066553;28;20106;-73
2023/11/14 08:14:47;;;;;;;2.97;1.75;;;;;;;21.01;43.31;99876.16;5063533;28;20040;-73
2023/11/14 08:17:13;;;;;;;3.40;1.50;;;;;;;20.90;43.02;99866.22;5059804;28;20036;-73
2023/11/14 08:19:39;;;;;;;3.13;1.60;;;;;;;21.01;43.24;99875.34;5061171;28;20040;-73
2023/11/14 08:22:06;;;;;;;3.80;1.63;;;;;;;21.01;43.19;99883.28;5060371;28;20048;-73
2023/11/14 08:24:33;;;;;;;3.33;1.55;;;;;;;20.96;43.01;99878.59;5066454;28;20033;-73
2023/11/14 08:26:59;;;;;;;4.43;1.67;;;;;;;20.98;43.22;99888.97;5057397;28;20544;-72
2023/11/14 08:29:25;;;;;;;3.40;1.67;;;;;;;20.97;43.01;99900.56;5062122;28;20035;-73
2023/11/14 08:31:50;;;;;;;4.30;1.90;;;;;;;20.88;43.27;99884.13;5068270;28;20528;-74
2023/11/14 08:34:15;;;;;;;3.97;1.85;;;;;;;20.94;43.18;99899.16;5065109;28;20770;-73
2023/11/14 08:36:41;;;;;;;5.05;2.08;;;;;;;20.92;43.26;99889.81;5066218;28;20044;-73
2023/11/14 08:39:10;;;;;;;3.67;2.00;;;;;;;20.95;43.25;99894.69;5065380;28;20036;-73
2023/11/14 08:41:36;;;;;;;3.25;2.00;;;;;;;20.88;43.08;99883.31;5062250;28;20482;-72
2023/11/14 08:44:02;;;;;;;4.32;1.50;;;;;;;20.83;43.25;99878.66;5066128;28;20051;-73
2023/11/14 08:46:28;;;;;;;6.05;2.20;;;;;;;20.85;43.07;99887.19;5062543;28;20059;-73
2023/11/14 08:48:54;;;;;;;2.17;1.10;;;;;;;20.87;43.10;99890.44;5063478;28;20044;-73
2023/11/14 08:51:21;;;;;;;6.03;2.22;;;;;;;20.89;43.27;99893.69;5065230;28;20501;-73
2023/11/14 08:53:47;;;;;;;6.93;1.90;;;;;;;20.87;43.06;99901.03;5069966;28;20058;-72
2023/11/14 08:56:13;;;;;;;3.72;1.65;;;;;;;20.89;43.16;99911.41;5058507;28;20076;-72
2023/11/14 08:58:38;;;;;;;3.17;1.55;;;;;;;20.85;43.10;99904.91;5063921;28;20082;-72
2023/11/14 09:01:04;;;;;;;4.65;1.67;;;;;;;20.88;43.12;99921.19;5070947;28;20127;-72
2023/11/14 09:03:30;;;;;;;4.15;1.88;;;;;;;20.87;43.17;99919.56;5064151;28;20593;-73
2023/11/14 09:05:56;;;;;;;4.78;1.80;;;;;;;20.85;43.01;99918.16;5057936;28;20509;-72
2023/11/14 09:08:21;;;;;;;4.65;1.70;;;;;;;20.86;43.09;99914.47;5061114;28;20093;-73
2023/11/14 09:10:47;;;;;;;2.63;1.17;;;;;;;20.84;43.24;99919.16;5061828;28;20044;-72
2023/11/14 09:13:13;;;;;;;4.45;1.83;;;;;;;20.77;43.20;99912.03;5066676;28;20045;-73
2023/11/14 09:15:40;;;;;;;4.47;2.03;;;;;;;20.75;43.29;99910.63;5069720;28;20048;-73
2023/11/14 09:18:06;;;;;;;4.47;2.05;;;;;;;20.58;43.19;99883.81;5060750;28;20086;-76
2023/11/14 09:20:31;;;;;;;4.25;1.98;;;;;;;20.76;43.29;99917.53;5060729;28;20558;-77
2023/11/14 09:22:57;;;;;;;4.07;2.10;;;;;;;20.80;43.04;99916.91;5057213;28;20064;-73
2023/11/14 09:25:23;;;;;;;4.30;2.00;;;;;;;20.86;43.16;99917.94;5064095;28;20048;-72
2023/11/14 09:27:48;;;;;;;4.60;1.70;;;;;;;21.09;42.90;99905.00;5066321;28;20044;-74
2023/11/14 09:30:14;;;;;;;3.40;1.60;;;;;;;21.38;42.43;99918.78;5063561;28;20060;-72
2023/11/14 09:32:40;;;;;;;4.78;1.50;;;;;;;21.26;42.02;99896.63;5060318;28;20040;-73
2023/11/14 09:35:11;;;;;;;4.25;2.03;;;;;;;21.50;41.97;99932.97;5058943;28;20105;-73
2023/11/14 09:37:37;;;;;;;4.60;2.00;;;;;;;21.41;42.13;99944.84;5064682;28;20098;-72
2023/11/14 09:40:06;;;;;;;6.15;2.58;;;;;;;21.34;42.61;99928.97;5062968;28;20036;-73
2023/11/14 09:42:34;;;;;;;5.72;2.22;;;;;;;21.24;42.72;99930.41;5061141;28;20066;-73
2023/11/14 09:45:00;;;;;;;5.43;2.20;;;;;;;21.22;42.62;99935.94;5068198;28;20071;-73
2023/11/14 09:47:26;;;;;;;8.50;2.22;;;;;;;21.20;42.88;99939.81;5060863;28;20098;-73
2023/11/14 09:49:52;;;;;;;6.15;2.20;;;;;;;21.14;43.07;99933.50;5064252;28;20064;-73
2023/11/14 09:52:18;;;;;;;5.28;1.90;;;;;;;21.10;43.01;99921.72;5065990;28;20506;-73
2023/11/14 09:54:44;;;;;;;4.65;2.03;;;;;;;21.10;43.01;99933.13;5062775;28;20207;-73
2023/11/14 09:57:12;;;;;;;5.25;1.98;;;;;;;21.07;42.97;99946.78;5061622;28;20133;-73
2023/11/14 09:59:41;;;;;;;7.57;2.10;;;;;;;21.05;43.18;99945.34;5063031;28;20044;-73
2023/11/14 10:02:07;;;;;;;5.60;2.67;;;;;;;20.99;43.24;99935.59;5075042;28;20039;-73
2023/11/14 10:04:33;;;;;;;5.20;2.05;;;;;;;21.00;43.36;99945.97;5065345;28;20509;-73
2023/11/14 10:06:59;;;;;;;4.25;1.67;;;;;;;21.03;43.25;99950.06;5059039;28;20044;-73
2023/11/14 10:09:26;;;;;;;5.13;1.80;;;;;;;21.01;43.45;99942.31;5062432;28;20063;-73
2023/11/14 10:11:53;;;;;;;5.05;1.85;;;;;;;20.74;43.21;99909.81;5056706;28;20576;-73
2023/11/14 10:14:21;;;;;;;3.35;1.70;;;;;;;20.88;43.28;99930.94;5058642;28;20048;-73
2023/11/14 10:16:57;;;;;;;5.57;1.88;;;;;;;20.89;43.37;99935.22;5060686;28;20102;-73
2023/11/14 10:19:23;;;;;;;5.07;2.25;;;;;;;20.83;43.33;99922.84;5066233;28;20043;-73
2023/11/14 10:21:48;;;;;;;6.93;2.05;;;;;;;20.95;43.37;99958.19;5060977;28;20040;-73
2023/11/14 10:24:15;;;;;;;6.97;2.13;;;;;;;20.95;43.22;99950.25;5063059;28;20105;-73
2023/11/14 10:26:53;;;;;;;4.70;1.95;;;;;;;20.94;43.43;99938.84;5057144;28;20597;-73
2023/11/14 10:29:21;;;;;;;7.70;2.25;;;;;;;20.92;43.28;99950.69;5065857;28;20127;-73
2023/11/14 10:31:48;;;;;;;9.55;2.80;;;;;;;20.91;43.59;99951.69;5058788;28;20190;-73
2023/11/14 10:34:26;;;;;;;6.68;2.28;;;;;;;20.90;43.61;99952.72;5062406;28;20028;-73
2023/11/14 10:36:56;;;;;;;8.18;2.75;;;;;;;20.86;43.50;99939.09;5061524;28;20044;-73
2023/11/14 10:39:26;;;;;;;4.53;1.70;;;;;;;20.91;43.49;99952.50;5066506;28;20123;-73
2023/11/14 10:41:52;;;;;;;4.70;2.08;;;;;;;20.80;43.64;99926.69;5060024;28;20063;-73
2023/11/14 10:44:19;;;;;;;5.88;2.20;;;;;;;20.89;43.62;99940.53;5063832;28;20500;-73
2023/11/14 10:46:48;;;;;;;6.35;2.17;;;;;;;20.92;43.52;99948.03;5075557;28;20040;-73
2023/11/14 10:49:14;;;;;;;6.55;2.53;;;;;;;20.88;43.54;99944.19;5065461;28;20036;-73
2023/11/14 10:51:41;;;;;;;7.28;2.65;;;;;;;20.84;43.41;99927.91;5063811;28;20059;-73
2023/11/14 10:54:08;;;;;;;6.47;2.08;;;;;;;20.83;43.56;99922.84;5076305;28;20575;-73
2023/11/14 10:56:35;;;;;;;7.32;2.17;;;;;;;20.90;43.73;99948.25;5060396;28;20044;-73
2023/11/14 10:59:08;;;;;;;9.13;2.72;;;;;;;20.86;43.46;99944.41;5058490;28;20061;-74
2023/11/14 11:01:33;;;;;;;6.20;2.33;;;;;;;20.78;43.44;99942.75;5058210;28;20051;-73
2023/11/14 11:04:01;;;;;;;7.25;2.53;;;;;;;20.92;43.44;99954.13;5056074;28;20056;-73
2023/11/14 11:06:26;;;;;;;5.63;2.65;;;;;;;20.81;43.71;99936.25;5062362;28;20795;-73
2023/11/14 11:08:54;;;;;;;7.80;2.40;;;;;;;20.93;43.64;99968.19;5058200;28;20029;-73
2023/11/14 11:11:28;;;;;;;7.45;2.33;;;;;;;20.92;43.65;99953.31;5060911;28;20422;-73
2023/11/14 11:13:56;;;;;;;6.13;2.22;;;;;;;20.86;43.91;99948.88;5061865;28;20068;-73
2023/11/14 11:16:45;;;;;;;6.10;2.17;;;;;;;20.93;43.97;99947.00;5058683;28;20111;-73
2023/11/14 11:19:17;;;;;;;7.15;2.22;;;;;;;20.90;43.94;99958.03;5061626;28;20024;-73
2023/11/14 11:22:06;;;;;;;9.27;2.92;;;;;;;20.87;43.92;99937.28;5059147;28;20127;-73
2023/11/14 11:24:32;;;;;;;6.10;2.55;;;;;;;20.87;43.79;99938.06;5061743;28;20069;-73
2023/11/14 11:27:25;;;;;;;7.93;2.42;;;;;;;20.88;43.84;99947.63;5057097;28;20056;-73
2023/11/14 11:29:59;;;;;;;6.38;3.05;;;;;;;20.94;44.08;99943.34;5060996;28;20045;-74